createdAt,value
2023-03-22T00:01:22.864Z,6.75
2023-03-22T00:03:57.865Z,6.76
2023-03-22T00:06:26.909Z,6.79
2023-03-22T00:08:56.016Z,6.86
2023-03-22T00:11:26.076Z,6.91
2023-03-22T00:14:16.730Z,6.92
2023-03-22T00:16:46.580Z,6.95
2023-03-22T00:19:18.078Z,6.99
2023-03-22T00:21:46.960Z,7.01
2023-03-22T00:24:15.635Z,7.05
2023-03-22T00:26:47.575Z,7.05
2023-03-22T00:29:16.292Z,7.05
2023-03-22T00:31:45.237Z,7.06
2023-03-22T00:34:14.342Z,7.08
2023-03-22T00:36:43.122Z,7.05
2023-03-22T00:39:12.108Z,7.06
2023-03-22T00:41:40.769Z,7.09
2023-03-22T00:44:10.716Z,7.12
2023-03-22T00:46:39.719Z,7.10
2023-03-22T00:49:08.313Z,7.11
2023-03-22T00:51:37.204Z,7.15
2023-03-22T00:54:07.278Z,7.14
2023-03-22T00:56:37.855Z,7.15
2023-03-22T00:59:06.584Z,7.18
2023-03-22T01:01:37.245Z,7.22
2023-03-22T01:04:06.395Z,7.27
2023-03-22T01:06:35.834Z,7.25
2023-03-22T01:09:05.189Z,7.28
2023-03-22T01:11:33.735Z,7.27
2023-03-22T01:14:02.665Z,7.12
2023-03-22T01:16:34.032Z,7.15
2023-03-22T01:19:04.307Z,7.16
2023-03-22T01:21:33.447Z,7.20
2023-03-22T01:24:02.089Z,7.21
2023-03-22T01:26:30.744Z,7.24
2023-03-22T01:28:59.802Z,7.25
2023-03-22T01:31:28.859Z,7.26
2023-03-22T01:33:57.441Z,7.29
2023-03-22T01:36:28.066Z,7.28
2023-03-22T01:38:56.927Z,7.34
2023-03-22T01:41:26.151Z,7.34
2023-03-22T01:44:12.642Z,7.35
2023-03-22T01:46:41.244Z,7.32
2023-03-22T01:49:12.964Z,7.36
2023-03-22T01:51:46.092Z,7.33
2023-03-22T01:54:19.582Z,7.33
2023-03-22T01:57:04.510Z,7.39
2023-03-22T01:59:33.415Z,7.42
2023-03-22T02:02:02.933Z,7.40
2023-03-22T02:04:34.680Z,7.38
2023-03-22T02:07:10.270Z,7.36
2023-03-22T02:09:41.706Z,7.37
2023-03-22T02:12:18.594Z,7.37
2023-03-22T02:14:57.587Z,7.40
2023-03-22T02:17:32.517Z,7.42
2023-03-22T02:20:33.433Z,7.45
2023-03-22T02:23:42.728Z,7.46
2023-03-22T02:26:47.294Z,7.46
2023-03-22T02:29:22.485Z,7.47
2023-03-22T02:32:05.890Z,7.47
2023-03-22T02:34:57.287Z,7.45
2023-03-22T02:37:41.943Z,7.50
2023-03-22T02:40:15.216Z,7.46
2023-03-22T02:42:51.807Z,7.43
2023-03-22T02:45:27.923Z,7.38
2023-03-22T02:48:00.994Z,7.39
2023-03-22T02:50:33.286Z,7.40
2023-03-22T02:53:06.022Z,7.38
2023-03-22T02:55:39.831Z,7.41
2023-03-22T02:58:12.801Z,7.37
2023-03-22T03:00:42.144Z,7.39
2023-03-22T03:03:15.277Z,7.43
2023-03-22T03:05:46.517Z,7.38
2023-03-22T03:08:17.429Z,7.39
2023-03-22T03:10:51.140Z,7.38
2023-03-22T03:13:20.804Z,7.39
2023-03-22T03:15:57.464Z,7.39
2023-03-22T03:18:48.008Z,7.39
2023-03-22T03:21:25.753Z,7.40
2023-03-22T03:24:00.591Z,7.42
2023-03-22T03:26:45.015Z,7.44
2023-03-22T03:29:23.033Z,7.45
2023-03-22T03:31:56.083Z,7.46
2023-03-22T03:34:27.644Z,7.45
2023-03-22T03:37:00.242Z,7.41
2023-03-22T03:39:34.792Z,7.40
2023-03-22T03:42:05.846Z,7.36
2023-03-22T03:44:36.090Z,7.31
2023-03-22T03:47:05.442Z,7.26
2023-03-22T03:49:34.344Z,7.21
2023-03-22T03:52:03.183Z,7.22
2023-03-22T03:54:31.636Z,7.18
2023-03-22T03:57:03.484Z,7.16
2023-03-22T03:59:34.156Z,7.16
2023-03-22T04:02:02.592Z,7.11
2023-03-22T04:04:31.310Z,7.11
2023-03-22T04:07:01.250Z,7.05
2023-03-22T04:09:31.724Z,7.00
2023-03-22T04:12:00.698Z,6.95
2023-03-22T04:14:29.332Z,6.95
2023-03-22T04:16:59.527Z,6.97
2023-03-22T04:19:27.977Z,6.95
2023-03-22T04:21:57.018Z,6.97
2023-03-22T04:24:25.637Z,7.00
2023-03-22T04:26:54.182Z,7.01
2023-03-22T04:29:24.755Z,7.01
2023-03-22T04:32:23.086Z,7.03
2023-03-22T04:34:52.131Z,7.01
2023-03-22T04:37:22.802Z,6.99
2023-03-22T04:39:51.726Z,6.99
2023-03-22T04:42:20.978Z,6.99
2023-03-22T04:44:49.764Z,6.98
2023-03-22T04:47:20.617Z,6.98
2023-03-22T04:49:52.542Z,6.99
2023-03-22T04:52:21.135Z,6.98
2023-03-22T04:54:49.718Z,7.00
2023-03-22T04:57:18.638Z,7.01
2023-03-22T04:59:47.302Z,7.01
2023-03-22T05:02:17.932Z,7.00
2023-03-22T05:04:48.305Z,7.01
2023-03-22T05:07:17.070Z,7.02
2023-03-22T05:09:45.637Z,7.03
2023-03-22T05:12:14.628Z,7.04
2023-03-22T05:14:44.053Z,7.05
2023-03-22T05:17:12.960Z,7.05
2023-03-22T05:19:41.431Z,7.04
2023-03-22T05:22:13.481Z,7.04
2023-03-22T05:24:44.849Z,7.06
2023-03-22T05:27:14.513Z,7.10
2023-03-22T05:29:45.336Z,7.14
2023-03-22T05:32:14.000Z,7.19
2023-03-22T05:34:45.714Z,7.20
2023-03-22T05:37:16.955Z,7.18
2023-03-22T05:39:45.504Z,7.21
2023-03-22T05:42:14.375Z,7.29
2023-03-22T05:44:42.843Z,7.37
2023-03-22T05:47:11.739Z,7.43
2023-03-22T05:49:40.319Z,7.51
2023-03-22T05:52:09.955Z,7.56
2023-03-22T05:54:42.584Z,7.62
2023-03-22T05:57:11.277Z,7.68
2023-03-22T05:59:40.147Z,7.77
2023-03-22T06:02:09.202Z,7.86
2023-03-22T06:04:38.342Z,7.95
2023-03-22T06:07:07.785Z,8.05
2023-03-22T06:09:36.560Z,8.10
2023-03-22T06:12:07.896Z,8.19
2023-03-22T06:14:36.629Z,8.26
2023-03-22T06:17:05.365Z,8.35
2023-03-22T06:19:37.090Z,8.48
2023-03-22T06:22:05.907Z,8.56
2023-03-22T06:24:34.701Z,8.61
2023-03-22T06:27:08.278Z,8.68
2023-03-22T06:29:38.118Z,8.73
2023-03-22T06:32:07.743Z,8.77
2023-03-22T06:34:36.390Z,8.83
2023-03-22T06:37:06.927Z,8.88
2023-03-22T06:39:38.027Z,8.86
2023-03-22T06:42:06.667Z,8.95
2023-03-22T06:44:35.563Z,8.88
2023-03-22T06:47:06.137Z,8.87
2023-03-22T06:49:35.175Z,8.81
2023-03-22T06:52:04.313Z,8.88
2023-03-22T06:54:32.945Z,9.05
2023-03-22T06:57:01.824Z,9.18
2023-03-22T06:59:30.874Z,9.29
2023-03-22T07:01:59.368Z,9.43
2023-03-22T07:04:29.509Z,9.45
2023-03-22T07:06:58.382Z,9.60
2023-03-22T07:09:27.606Z,9.61
2023-03-22T07:12:00.314Z,9.69
2023-03-22T07:14:30.428Z,9.92
2023-03-22T07:16:59.254Z,10.17
2023-03-22T07:19:32.810Z,10.36
2023-03-22T07:22:01.765Z,10.64
2023-03-22T07:24:30.535Z,10.95
2023-03-22T07:27:05.247Z,11.27
2023-03-22T07:29:34.579Z,11.34
2023-03-22T07:32:03.057Z,11.37
2023-03-22T07:34:33.499Z,11.52
2023-03-22T07:37:03.132Z,11.59
2023-03-22T07:39:31.927Z,11.48
2023-03-22T07:42:00.564Z,11.52
2023-03-22T07:44:32.174Z,11.62
2023-03-22T07:47:00.972Z,11.62
2023-03-22T07:50:32.083Z,11.62
2023-03-22T07:53:02.002Z,11.53
2023-03-22T07:55:35.711Z,11.72
2023-03-22T07:58:04.209Z,11.93
2023-03-22T08:00:32.696Z,12.02
2023-03-22T08:03:04.116Z,12.16
2023-03-22T08:05:32.416Z,12.37
2023-03-22T08:08:03.666Z,12.58
2023-03-22T08:10:35.389Z,12.71
2023-03-22T08:13:04.225Z,12.76
2023-03-22T08:15:37.660Z,12.83
2023-03-22T08:18:08.953Z,12.89
2023-03-22T08:20:38.573Z,13.03
2023-03-22T08:23:26.338Z,13.28
2023-03-22T08:26:00.704Z,13.47
2023-03-22T08:28:31.921Z,13.74
2023-03-22T08:31:00.527Z,14.02
2023-03-22T08:33:31.976Z,14.23
2023-03-22T08:36:09.647Z,14.35
2023-03-22T08:38:42.710Z,14.61
2023-03-22T08:41:11.870Z,14.82
2023-03-22T08:43:40.546Z,15.02
2023-03-22T08:46:09.463Z,15.18
2023-03-22T08:48:38.722Z,15.43
2023-03-22T08:51:08.079Z,15.62
2023-03-22T08:53:37.128Z,15.68
2023-03-22T08:56:08.887Z,15.70
2023-03-22T08:58:41.150Z,16.00
2023-03-22T09:01:12.713Z,16.36
2023-03-22T09:03:46.727Z,16.51
2023-03-22T09:06:19.119Z,16.48
2023-03-22T09:08:48.928Z,16.68
2023-03-22T09:11:19.243Z,16.93
2023-03-22T09:13:48.693Z,17.03
2023-03-22T09:16:20.984Z,17.03
2023-03-22T09:18:49.477Z,16.92
2023-03-22T09:21:17.822Z,17.30
2023-03-22T09:23:48.017Z,17.43
2023-03-22T09:26:18.655Z,17.75
2023-03-22T09:28:47.289Z,18.57
2023-03-22T09:31:18.532Z,19.89
2023-03-22T09:33:48.469Z,21.16
2023-03-22T09:36:17.480Z,22.12
2023-03-22T09:38:47.217Z,21.88
2023-03-22T09:41:20.003Z,20.89
2023-03-22T09:43:54.658Z,20.38
2023-03-22T09:46:29.213Z,20.38
2023-03-22T09:49:15.362Z,21.16
2023-03-22T09:51:47.849Z,22.07
2023-03-22T09:54:19.941Z,23.11
2023-03-22T09:56:52.490Z,23.10
2023-03-22T09:59:24.954Z,23.81
2023-03-22T10:01:58.565Z,23.69
2023-03-22T10:04:45.675Z,22.97
2023-03-22T10:07:25.740Z,21.67
2023-03-22T10:10:16.345Z,20.78
2023-03-22T10:12:54.769Z,22.26
2023-03-22T10:15:29.833Z,24.22
2023-03-22T10:18:01.071Z,25.44
2023-03-22T10:20:37.170Z,25.42
2023-03-22T10:23:07.880Z,25.56
2023-03-22T10:25:39.025Z,25.36
2023-03-22T10:28:17.004Z,26.22
2023-03-22T10:30:51.115Z,27.44
2023-03-22T10:33:25.478Z,26.77
2023-03-22T10:35:56.214Z,24.57
2023-03-22T10:38:27.452Z,25.17
2023-03-22T10:40:59.230Z,27.00
2023-03-22T10:43:34.084Z,27.63
2023-03-22T10:46:05.326Z,27.31
2023-03-22T10:48:35.558Z,28.47
2023-03-22T10:51:04.768Z,28.49
2023-03-22T10:53:39.138Z,27.96
2023-03-22T10:56:13.172Z,28.12
2023-03-22T10:58:45.027Z,28.50
2023-03-22T11:01:15.394Z,28.69
2023-03-22T11:03:45.756Z,28.57
2023-03-22T11:06:15.970Z,28.27
2023-03-22T11:08:49.123Z,27.48
2023-03-22T11:11:21.304Z,28.41
2023-03-22T11:14:00.196Z,29.08
2023-03-22T11:16:31.297Z,27.86
2023-03-22T11:19:02.952Z,25.91
2023-03-22T11:21:33.671Z,25.59
2023-03-22T11:24:06.362Z,25.36
2023-03-22T11:26:41.797Z,24.98
2023-03-22T11:29:19.499Z,23.55
2023-03-22T11:31:56.119Z,23.31
2023-03-22T11:34:27.956Z,22.38
2023-03-22T11:36:58.125Z,22.07
2023-03-22T11:39:29.522Z,22.01
2023-03-22T11:42:01.910Z,21.66
2023-03-22T11:44:34.807Z,21.39
2023-03-22T11:47:04.681Z,20.18
2023-03-22T11:49:40.119Z,20.74
2023-03-22T11:52:11.406Z,21.07
2023-03-22T11:54:47.212Z,21.30
2023-03-22T11:57:23.126Z,21.60
2023-03-22T11:59:57.428Z,21.58
2023-03-22T12:02:34.174Z,21.67
2023-03-22T12:05:10.533Z,21.70
2023-03-22T12:07:40.289Z,21.24
2023-03-22T12:10:16.769Z,21.50
2023-03-22T12:12:48.497Z,21.55
2023-03-22T12:15:21.638Z,21.39
2023-03-22T12:17:59.009Z,21.30
2023-03-22T12:20:36.857Z,21.12
2023-03-22T12:23:14.436Z,21.16
2023-03-22T12:25:45.027Z,20.61
2023-03-22T12:28:17.405Z,21.37
2023-03-22T12:30:49.808Z,21.59
2023-03-22T12:33:22.399Z,21.53
2023-03-22T12:35:53.151Z,21.73
2023-03-22T12:38:29.848Z,22.00
2023-03-22T12:41:00.349Z,21.74
2023-03-22T12:43:48.782Z,21.85
2023-03-22T12:46:25.841Z,21.47
2023-03-22T12:48:57.462Z,21.49
2023-03-22T12:51:26.696Z,21.02
2023-03-22T12:53:56.971Z,21.50
2023-03-22T12:56:28.473Z,21.65
2023-03-22T12:59:31.580Z,21.79
2023-03-22T13:02:05.744Z,21.74
2023-03-22T13:04:51.147Z,21.36
2023-03-22T13:07:41.337Z,21.46
2023-03-22T13:10:48.850Z,21.74
2023-03-22T13:13:20.935Z,22.02
2023-03-22T13:16:01.427Z,21.55
2023-03-22T13:18:39.321Z,22.06
2023-03-22T13:21:16.905Z,22.29
2023-03-22T13:23:57.207Z,22.43
2023-03-22T13:26:37.831Z,22.12
2023-03-22T13:29:12.666Z,22.53
2023-03-22T13:31:44.762Z,22.73
2023-03-22T13:34:19.297Z,22.91
2023-03-22T13:36:54.036Z,23.17
2023-03-22T13:39:25.506Z,23.32
2023-03-22T13:42:18.221Z,22.28
2023-03-22T13:44:47.576Z,22.58
2023-03-22T13:47:37.676Z,22.15
2023-03-22T13:50:14.275Z,22.29
2023-03-22T13:52:44.755Z,22.64
2023-03-22T13:55:38.013Z,22.78
2023-03-22T13:58:11.661Z,22.66
2023-03-22T14:00:44.863Z,22.79
2023-03-22T14:03:18.091Z,23.26
2023-03-22T14:05:48.567Z,23.27
2023-03-22T14:08:23.419Z,23.47
2023-03-22T14:10:54.692Z,22.86
2023-03-22T14:13:32.628Z,22.79
2023-03-22T14:16:06.040Z,23.14
2023-03-22T14:18:36.596Z,22.84
2023-03-22T14:21:08.553Z,22.38
